Terminal Aerodrome Forecast
Issued by NWS

Home | Current Version | Previous Version | Graphics & Text | Print | Product List | Glossary On
Versions: 1 2 3 4 5 6 7 8 9 10 11 12 13 14 15 16 17 18 19 20 21
000
FTUS43 KFGF 292300
TAFBJI
TAF
KBJI 292320Z 3000/3024 21006KT P6SM OVC015
      TEMPO 3000/3004 OVC025
     FM300600 VRB06KT P6SM OVC040
     FM301100 34006KT P6SM OVC015
     FM301700 32015G21KT P6SM OVC025
     FM302100 33018G25KT P6SM OVC050=

USA.gov is the U.S. government's official web portal to all federal, state and local government web resources and services.